Map

Track Data

SID SEASON NUMBER BASIN SUBBASIN NAME ISO_TIME NATURE LAT LON WMO_WIND WMO_PRES WMO_AGENCY TRACK_TYPE DIST2LAND LANDFALL IFLAG USA_AGENCY USA_ATCF_ID USA_LAT USA_LON USA_RECORD USA_STATUS USA_WIND USA_PRES USA_SSHS USA_R34_NE USA_R34_SE USA_R34_SW USA_R34_NW USA_R50_NE USA_R50_SE USA_R50_SW USA_R50_NW USA_R64_NE USA_R64_SE USA_R64_SW USA_R64_NW USA_POCI USA_ROCI USA_RMW USA_EYE TOKYO_LAT TOKYO_LON TOKYO_GRADE TOKYO_WIND TOKYO_PRES TOKYO_R50_DIR TOKYO_R50_LONG TOKYO_R50_SHORT TOKYO_R30_DIR TOKYO_R30_LONG TOKYO_R30_SHORT TOKYO_LAND CMA_LAT CMA_LON CMA_CAT CMA_WIND CMA_PRES HKO_LAT HKO_LON HKO_CAT HKO_WIND HKO_PRES NEWDELHI_LAT NEWDELHI_LON NEWDELHI_GRADE NEWDELHI_WIND NEWDELHI_PRES NEWDELHI_CI NEWDELHI_DP NEWDELHI_POCI REUNION_LAT REUNION_LON REUNION_TYPE REUNION_WIND REUNION_PRES REUNION_TNUM REUNION_CI REUNION_RMW REUNION_R34_NE REUNION_R34_SE REUNION_R34_SW REUNION_R34_NW REUNION_R50_NE REUNION_R50_SE REUNION_R50_SW REUNION_R50_NW REUNION_R64_NE REUNION_R64_SE REUNION_R64_SW REUNION_R64_NW BOM_LAT BOM_LON BOM_TYPE BOM_WIND BOM_PRES BOM_TNUM BOM_CI BOM_RMW BOM_R34_NE BOM_R34_SE BOM_R34_SW BOM_R34_NW BOM_R50_NE BOM_R50_SE BOM_R50_SW BOM_R50_NW BOM_R64_NE BOM_R64_SE BOM_R64_SW BOM_R64_NW BOM_ROCI BOM_POCI BOM_EYE BOM_POS_METHOD BOM_PRES_METHOD NADI_LAT NADI_LON NADI_CAT NADI_WIND NADI_PRES WELLINGTON_LAT WELLINGTON_LON WELLINGTON_WIND WELLINGTON_PRES DS824_LAT DS824_LON DS824_STAGE DS824_WIND DS824_PRES TD9636_LAT TD9636_LON TD9636_STAGE TD9636_WIND TD9636_PRES TD9635_LAT TD9635_LON TD9635_WIND TD9635_PRES TD9635_ROCI NEUMANN_LAT NEUMANN_LON NEUMANN_CLASS NEUMANN_WIND NEUMANN_PRES MLC_LAT MLC_LON MLC_CLASS MLC_WIND MLC_PRES USA_GUST BOM_GUST BOM_GUST_PER REUNION_GUST REUNION_GUST_PER USA_SEAHGT USA_SEARAD_NE USA_SEARAD_SE USA_SEARAD_SW USA_SEARAD_NW STORM_SPEED STORM_DIR
1928236N10142 1928 45 WP MM NOT_NAMED 1928-08-22 22:00:00 NR 10.3000 142.300 main 1408 1408 __________O___ -1 10.3000 142.300 7 11 306
1928236N10142 1928 45 WP MM NOT_NAMED 1928-08-23 00:00:00 NR 10.5101 142.003 main 1419 1419 __________P___ -1 10.5101 142.003 7 11 305
1928236N10142 1928 45 WP MM NOT_NAMED 1928-08-23 03:00:00 NR 10.8212 141.555 main 1439 1436 __________P___ -1 10.8212 141.555 7 11 305
1928236N10142 1928 45 WP MM NOT_NAMED 1928-08-23 06:00:00 NR 11.1227 141.105 main 1452 1452 __________P___ -1 11.1227 141.105 7 11 304
1928236N10142 1928 45 WP MM NOT_NAMED 1928-08-23 09:00:00 NR 11.4089 140.652 main 1466 1462 __________P___ -1 11.4089 140.652 7 11 302
1928236N10142 1928 45 WP MM NOT_NAMED 1928-08-23 10:00:00 NR 11.5000 140.500 main 1469 1465 __________O___ -1 11.5000 140.500 7 10 301
1928236N10142 1928 45 WP MM NOT_NAMED 1928-08-23 12:00:00 NR 11.6748 140.194 main 1479 1475 __________P___ -1 11.6748 140.194 7 10 299
1928236N10142 1928 45 WP MM NOT_NAMED 1928-08-23 15:00:00 NR 11.9184 139.729 main 1482 1468 __________P___ -1 11.9184 139.729 7 10 297
1928236N10142 1928 45 WP MM NOT_NAMED 1928-08-23 18:00:00 NR 12.1396 139.254 main 1468 1420 __________P___ -1 12.1396 139.254 7 10 294
1928236N10142 1928 45 WP MM NOT_NAMED 1928-08-23 21:00:00 NR 12.3386 138.766 main 1420 1401 __________P___ -1 12.3386 138.766 7 10 292
1928236N10142 1928 45 WP MM NOT_NAMED 1928-08-23 22:00:00 NR 12.4000 138.600 main 1401 1371 __________O___ -1 12.4000 138.600 7 10 291
1928236N10142 1928 45 WP MM NOT_NAMED 1928-08-24 00:00:00 NR 12.5273 138.272 main 1371 1320 __________P___ -1 12.5273 138.272 7 10 290
1928236N10142 1928 45 WP MM NOT_NAMED 1928-08-24 03:00:00 NR 12.6998 137.767 main 1320 1257 __________P___ -1 12.6998 137.767 7 11 288
1928236N10142 1928 45 WP MM NOT_NAMED 1928-08-24 06:00:00 NR 12.8473 137.242 main 1257 1207 __________P___ -1 12.8473 137.242 7 11 284
1928236N10142 1928 45 WP MM NOT_NAMED 1928-08-24 09:00:00 NR 12.9669 136.691 main 1207 1185 __________P___ -1 12.9669 136.691 7 11 282
1928236N10142 1928 45 WP MM NOT_NAMED 1928-08-24 10:00:00 NR 13.0000 136.500 main 1185 1143 __________O___ -1 13.0000 136.500 7 12 277
1928236N10142 1928 45 WP MM NOT_NAMED 1928-08-24 12:00:00 NR 13.0380 136.090 main 1143 1070 __________P___ -1 13.0380 136.090 7 12 274
1928236N10142 1928 45 WP MM NOT_NAMED 1928-08-24 15:00:00 NR 13.0693 135.449 main 1070 1007 __________P___ -1 13.0693 135.449 7 13 273
1928236N10142 1928 45 WP MM NOT_NAMED 1928-08-24 18:00:00 NR 13.1001 134.807 main 1007 946 __________P___ -1 13.1001 134.807 7 12 274
1928236N10142 1928 45 WP MM NOT_NAMED 1928-08-24 21:00:00 NR 13.1649 134.193 main 946 925 __________P___ -1 13.1649 134.193 7 12 277
1928236N10142 1928 45 WP MM NOT_NAMED 1928-08-24 22:00:00 NR 13.2000 134.000 main 925 886 __________O___ -1 13.2000 134.000 7 11 284
1928236N10142 1928 45 WP MM NOT_NAMED 1928-08-25 00:00:00 NR 13.2991 133.639 main 886 837 __________P___ -1 13.2991 133.639 7 11 289
1928236N10142 1928 45 WP MM NOT_NAMED 1928-08-25 03:00:00 NR 13.4922 133.134 main 837 798 __________P___ -1 13.4922 133.134 7 10 295
1928236N10142 1928 45 WP MM NOT_NAMED 1928-08-25 06:00:00 NR 13.7299 132.669 main 798 753 __________P___ -1 13.7299 132.669 7 10 300
1928236N10142 1928 45 WP MM NOT_NAMED 1928-08-25 09:00:00 NR 14.0029 132.238 main 753 745 __________P___ -1 14.0029 132.238 7 10 304
1928236N10142 1928 45 WP MM NOT_NAMED 1928-08-25 10:00:00 NR 14.1000 132.100 main 745 721 __________O___ -1 14.1000 132.100 7 10 304
1928236N10142 1928 45 WP MM NOT_NAMED 1928-08-25 12:00:00 NR 14.2806 131.811 main 721 688 __________P___ -1 14.2806 131.811 7 10 305
1928236N10142 1928 45 WP MM NOT_NAMED 1928-08-25 15:00:00 NR 14.5765 131.403 main 692 667 __________P___ -1 14.5765 131.403 7 10 310
1928236N10142 1928 45 WP MM NOT_NAMED 1928-08-25 18:00:00 NR 14.9053 131.031 main 667 654 __________P___ -1 14.9053 131.031 7 10 316
1928236N10142 1928 45 WP MM NOT_NAMED 1928-08-25 21:00:00 NR 15.2700 130.700 main 660 651 __________P___ -1 15.2700 130.700 7 10 320
1928236N10142 1928 45 WP MM NOT_NAMED 1928-08-25 22:00:00 NR 15.4000 130.600 main 657 651 __________O___ -1 15.4000 130.600 7 10 323
1928236N10142 1928 45 WP MM NOT_NAMED 1928-08-26 00:00:00 NR 15.6556 130.395 main 658 649 __________P___ -1 15.6556 130.395 7 10 326
1928236N10142 1928 45 WP MM NOT_NAMED 1928-08-26 03:00:00 NR 16.0703 130.124 main 660 653 __________P___ -1 16.0703 130.124 7 10 332
1928236N10142 1928 45 WP MM NOT_NAMED 1928-08-26 06:00:00 NR 16.5254 129.904 main 658 658 __________P___ -1 16.5254 129.904 7 10 339
1928236N10142 1928 45 WP MM NOT_NAMED 1928-08-26 09:00:00 NR 17.0237 129.741 main 665 671 __________P___ -1 17.0237 129.741 7 11 344
1928236N10142 1928 45 WP MM NOT_NAMED 1928-08-26 10:00:00 NR 17.2000 129.700 main 677 677 __________O___ -1 17.2000 129.700 7 11 350
1928236N10142 1928 45 WP MM NOT_NAMED 1928-08-26 12:00:00 NR 17.5761 129.637 main 693 693 __________P___ -1 17.5761 129.637 7 12 354
1928236N10142 1928 45 WP MM NOT_NAMED 1928-08-26 15:00:00 NR 18.1785 129.594 main 735 735 __________P___ -1 18.1785 129.594 7 12 358
1928236N10142 1928 45 WP MM NOT_NAMED 1928-08-26 18:00:00 NR 18.7989 129.589 main 770 770 __________P___ -1 18.7989 129.589 7 12 1
1928236N10142 1928 45 WP MM NOT_NAMED 1928-08-26 21:00:00 NR 19.4060 129.598 main 776 776 __________P___ -1 19.4060 129.598 7 12 1
1928236N10142 1928 45 WP MM NOT_NAMED 1928-08-26 22:00:00 NR 19.6000 129.600 main 779 779 __________O___ -1 19.6000 129.600 7 11 0
1928236N10142 1928 45 WP MM NOT_NAMED 1928-08-27 00:00:00 NR 19.9561 129.576 main 787 784 __________P___ -1 19.9561 129.576 7 10 356
1928236N10142 1928 45 WP MM NOT_NAMED 1928-08-27 03:00:00 NR 20.4651 129.539 main 790 790 __________P___ -1 20.4651 129.539 7 10 357
1928236N10142 1928 45 WP MM NOT_NAMED 1928-08-27 06:00:00 NR 20.9550 129.510 main 807 807 __________P___ -1 20.9550 129.510 7 10 358
1928236N10142 1928 45 WP MM NOT_NAMED 1928-08-27 09:00:00 NR 21.4382 129.498 main 823 828 __________P___ -1 21.4382 129.498 7 10 358
1928236N10142 1928 45 WP MM NOT_NAMED 1928-08-27 10:00:00 NR 21.6000 129.500 main 832 828 __________O___ -1 21.6000 129.500 7 10 1
1928236N10142 1928 45 WP MM NOT_NAMED 1928-08-27 12:00:00 NR 21.9464 129.516 main 828 809 __________P___ -1 21.9464 129.516 7 10 4
1928236N10142 1928 45 WP MM NOT_NAMED 1928-08-27 15:00:00 NR 22.4664 129.559 main 815 800 __________P___ -1 22.4664 129.559 7 10 5
1928236N10142 1928 45 WP MM NOT_NAMED 1928-08-27 18:00:00 NR 22.9728 129.617 main 800 795 __________P___ -1 22.9728 129.617 7 10 6
1928236N10142 1928 45 WP MM NOT_NAMED 1928-08-27 21:00:00 NR 23.4501 129.680 main 797 795 __________P___ -1 23.4501 129.680 7 10 7
1928236N10142 1928 45 WP MM NOT_NAMED 1928-08-27 22:00:00 NR 23.6000 129.700 main 795 788 __________O___ -1 23.6000 129.700 7 8 5
1928236N10142 1928 45 WP MM NOT_NAMED 1928-08-28 00:00:00 NR 23.8654 129.731 main 788 764 __________P___ -1 23.8654 129.731 7 8 6
1928236N10142 1928 45 WP MM NOT_NAMED 1928-08-28 03:00:00 NR 24.2317 129.777 main 764 720 __________P___ -1 24.2317 129.777 7 7 7
1928236N10142 1928 45 WP MM NOT_NAMED 1928-08-28 06:00:00 NR 24.5876 129.826 main 720 674 __________P___ -1 24.5876 129.826 7 7 8
1928236N10142 1928 45 WP MM NOT_NAMED 1928-08-28 09:00:00 NR 24.9644 129.880 main 674 663 __________P___ -1 24.9644 129.880 7 8 8
1928236N10142 1928 45 WP MM NOT_NAMED 1928-08-28 10:00:00 NR 25.1000 129.900 main 663 630 __________O___ -1 25.1000 129.900 7 9 7
1928236N10142 1928 45 WP MM NOT_NAMED 1928-08-28 12:00:00 NR 25.3909 129.943 main 630 573 __________P___ -1 25.3909 129.943 7 9 8
1928236N10142 1928 45 WP MM NOT_NAMED 1928-08-28 15:00:00 NR 25.8693 130.014 main 573 516 __________P___ -1 25.8693 130.014 7 10 7
1928236N10142 1928 45 WP MM NOT_NAMED 1928-08-28 18:00:00 NR 26.3841 130.091 main 516 460 __________P___ -1 26.3841 130.091 7 11 8
1928236N10142 1928 45 WP MM NOT_NAMED 1928-08-28 21:00:00 NR 26.9196 130.172 main 460 438 __________P___ -1 26.9196 130.172 7 11 7
1928236N10142 1928 45 WP MM NOT_NAMED 1928-08-28 22:00:00 NR 27.1000 130.200 main 438 __________O___ -1 27.1000 130.200 7 11 6

Digital Typhoon Data and Search

About IBTrACS Database

This database is a web-friendly format of International Best Track Archive for Climate Stewardship (IBTrACS), a global best track data archive curated by NOAA dating back to 1842.

Updated: 2021-11-26